createdAt,value
2019-05-12T00:00:07.958Z,87.37
2019-05-12T00:05:08.784Z,88.10
2019-05-12T00:10:08.646Z,87.68
2019-05-12T00:15:08.259Z,87.58
2019-05-12T00:20:08.592Z,87.48
2019-05-12T00:25:08.786Z,87.79
2019-05-12T00:30:10.105Z,87.89
2019-05-12T00:35:07.807Z,88.34
2019-05-12T00:40:08.873Z,89.07
2019-05-12T00:45:08.145Z,88.96
2019-05-12T00:50:08.031Z,88.65
2019-05-12T00:55:08.017Z,88.28
2019-05-12T01:00:08.746Z,88.90
2019-05-12T01:05:08.574Z,89.83
2019-05-12T01:10:08.705Z,89.52
2019-05-12T01:15:07.503Z,89.36
2019-05-12T01:20:08.933Z,89.77
2019-05-12T01:25:08.496Z,90.60
2019-05-12T01:30:08.790Z,90.39
2019-05-12T01:35:08.115Z,90.80
2019-05-12T01:40:08.850Z,91.11
2019-05-12T01:45:06.320Z,91.16
2019-05-12T01:50:08.749Z,91.20
2019-05-12T01:55:08.164Z,91.72
2019-05-12T02:00:08.039Z,91.86
2019-05-12T02:05:08.525Z,92.59
2019-05-12T02:10:06.121Z,93.46
2019-05-12T02:15:08.004Z,92.78
2019-05-12T02:20:07.735Z,93.50
2019-05-12T02:25:07.958Z,94.12
2019-05-12T02:30:09.344Z,94.89
2019-05-12T02:35:06.007Z,94.89
2019-05-12T02:40:05.721Z,95.77
2019-05-12T02:45:05.805Z,95.67
2019-05-12T02:50:05.673Z,95.15
2019-05-12T02:55:06.427Z,95.92
2019-05-12T03:00:05.533Z,96.02
2019-05-12T03:05:05.707Z,95.61
2019-05-12T03:10:05.481Z,96.44
2019-05-12T03:15:05.797Z,96.75
2019-05-12T03:20:05.375Z,96.85
2019-05-12T03:25:15.535Z,97.00
2019-05-12T03:30:11.790Z,98.10
2019-05-12T03:35:08.853Z,98.68
2019-05-12T03:40:05.576Z,98.16
2019-05-12T03:45:05.149Z,97.43
2019-05-12T03:50:05.016Z,96.85
2019-05-12T03:55:05.535Z,96.75
2019-05-12T04:00:05.337Z,97.16
2019-05-12T04:05:05.375Z,97.27
2019-05-12T04:10:05.399Z,97.74
2019-05-12T04:15:05.284Z,98.83
2019-05-12T04:20:05.029Z,99.10
2019-05-12T04:25:06.146Z,99.05
2019-05-12T04:30:05.624Z,98.70
2019-05-12T04:35:04.921Z,98.08
2019-05-12T04:40:05.388Z,98.13
2019-05-12T04:45:04.638Z,97.99
2019-05-12T04:50:05.499Z,96.64
2019-05-12T04:55:04.889Z,95.50
2019-05-12T05:00:05.178Z,94.57
2019-05-12T05:05:05.395Z,95.19
2019-05-12T05:10:04.781Z,95.50
2019-05-12T05:15:05.449Z,94.94
2019-05-12T05:20:04.205Z,94.48
2019-05-12T05:25:04.344Z,93.51
2019-05-12T05:30:04.194Z,92.44
2019-05-12T05:35:07.352Z,92.23
2019-05-12T05:40:04.063Z,82.64
2019-05-12T05:45:04.869Z,73.57
2019-05-12T05:50:04.743Z,68.21
2019-05-12T05:55:05.791Z,64.29
2019-05-12T06:00:07.307Z,61.87
2019-05-12T06:05:04.620Z,63.51
2019-05-12T06:10:04.107Z,70.44
2019-05-12T06:15:04.338Z,71.91
2019-05-12T06:20:04.364Z,71.77
2019-05-12T06:25:04.834Z,73.40
2019-05-12T06:30:06.194Z,72.21
2019-05-12T06:35:04.580Z,71.26
2019-05-12T06:40:03.670Z,68.57
2019-05-12T06:45:03.753Z,69.23
2019-05-12T06:50:03.966Z,67.52
2019-05-12T06:55:04.073Z,68.48
2019-05-12T07:00:04.608Z,67.08
2019-05-12T07:05:04.408Z,61.75
2019-05-12T07:10:11.723Z,61.60
2019-05-12T07:15:04.072Z,56.88
2019-05-12T07:20:04.009Z,57.78
2019-05-12T07:25:04.527Z,58.94
2019-05-12T07:30:04.716Z,59.30
2019-05-12T07:35:03.925Z,60.28
2019-05-12T07:40:04.829Z,58.61
2019-05-12T07:45:03.979Z,56.61
2019-05-12T07:50:04.478Z,57.36
2019-05-12T07:55:04.334Z,55.11
2019-05-12T08:00:03.572Z,55.11
2019-05-12T08:05:03.871Z,56.68
2019-05-12T08:10:07.180Z,57.30
2019-05-12T08:15:07.801Z,60.46
2019-05-12T08:20:04.455Z,61.34
2019-05-12T08:25:04.167Z,59.37
2019-05-12T08:30:06.006Z,62.58
2019-05-12T08:35:04.871Z,62.07
2019-05-12T08:40:04.270Z,63.22
2019-05-12T08:45:04.492Z,63.89
2019-05-12T08:50:04.580Z,62.04
2019-05-12T08:55:04.093Z,62.20
2019-05-12T09:00:03.408Z,62.24
2019-05-12T09:05:04.694Z,60.36
2019-05-12T09:10:03.998Z,61.07
2019-05-12T09:15:04.288Z,60.89
2019-05-12T09:20:05.993Z,61.63
2019-05-12T09:25:06.235Z,59.20
2019-05-12T09:30:06.708Z,57.93
2019-05-12T09:35:04.024Z,55.88
2019-05-12T09:40:01.512Z,57.32
2019-05-12T09:45:06.045Z,53.98
2019-05-12T09:50:04.348Z,49.44
2019-05-12T09:55:01.437Z,50.47
2019-05-12T10:00:01.499Z,48.72
2019-05-12T10:05:03.769Z,52.11
2019-05-12T10:10:03.498Z,50.24
2019-05-12T10:15:01.191Z,49.36
2019-05-12T10:20:01.224Z,49.72
2019-05-12T10:25:03.988Z,48.39
2019-05-12T10:30:05.617Z,51.63
2019-05-12T10:35:02.076Z,48.11
2019-05-12T10:40:03.555Z,46.86
2019-05-12T10:45:00.966Z,43.40
2019-05-12T10:50:00.915Z,42.82
2019-05-12T10:55:00.859Z,44.73
2019-05-12T11:00:01.010Z,45.37
2019-05-12T11:05:00.837Z,43.26
2019-05-12T11:10:05.594Z,45.34
2019-05-12T11:15:06.718Z,46.49
2019-05-12T11:20:03.955Z,46.11
2019-05-12T11:25:00.623Z,46.20
2019-05-12T11:30:00.671Z,44.43
2019-05-12T11:35:00.629Z,44.39
2019-05-12T11:40:00.480Z,44.19
2019-05-12T11:45:00.803Z,44.93
2019-05-12T11:50:05.208Z,45.71
2019-05-12T11:55:01.374Z,45.57
2019-05-12T12:00:02.219Z,47.13
2019-05-12T12:05:00.279Z,47.14
2019-05-12T12:30:36.576Z,44.83
2019-05-12T12:35:37.551Z,46.34
2019-05-12T12:40:36.605Z,44.08
2019-05-12T12:45:40.155Z,40.88
2019-05-12T12:50:36.419Z,39.65
2019-05-12T12:55:38.067Z,41.24
2019-05-12T13:00:46.832Z,43.90
2019-05-12T13:05:37.374Z,45.46
2019-05-12T13:10:40.690Z,49.11
2019-05-12T13:15:39.162Z,50.65
2019-05-12T13:20:36.162Z,40.33
2019-05-12T13:25:38.792Z,41.61
2019-05-12T13:30:46.349Z,42.10
2019-05-12T13:35:37.125Z,39.95
2019-05-12T13:40:39.169Z,37.79
2019-05-12T13:45:35.959Z,43.74
2019-05-12T13:50:35.891Z,44.23
2019-05-12T13:55:39.273Z,44.65
2019-05-12T14:00:50.927Z,41.49
2019-05-12T14:05:41.291Z,44.13
2019-05-12T14:10:37.660Z,45.28
2019-05-12T14:15:35.667Z,46.64
2019-05-12T14:20:35.608Z,48.15
2019-05-12T14:25:36.624Z,43.80
2019-05-12T14:30:41.316Z,43.90
2019-05-12T14:35:40.859Z,42.58
2019-05-12T14:40:36.631Z,43.24
2019-05-12T14:45:36.583Z,44.93
2019-05-12T14:50:35.363Z,46.47
2019-05-12T14:55:35.463Z,47.94
2019-05-12T15:00:35.241Z,46.17
2019-05-12T15:05:35.662Z,42.05
2019-05-12T15:10:35.210Z,40.45
2019-05-12T15:15:35.201Z,40.71
2019-05-12T15:20:35.112Z,41.51
2019-05-12T15:25:37.097Z,44.63
2019-05-12T15:30:35.057Z,45.66
2019-05-12T15:35:34.967Z,46.29
2019-05-12T15:40:35.022Z,47.32
2019-05-12T15:45:34.844Z,49.01
2019-05-12T15:50:34.806Z,51.90
2019-05-12T15:55:34.816Z,50.04
2019-05-12T16:00:34.738Z,50.16
2019-05-12T16:05:34.685Z,51.09
2019-05-12T16:10:34.675Z,50.87
2019-05-12T16:15:36.513Z,47.39
2019-05-12T16:20:34.538Z,48.81
2019-05-12T16:25:34.538Z,46.91
2019-05-12T16:30:34.459Z,47.00
2019-05-12T16:35:34.644Z,47.15
2019-05-12T16:40:34.509Z,48.10
2019-05-12T16:45:34.307Z,49.04
2019-05-12T16:50:35.410Z,50.19
2019-05-12T16:55:46.584Z,51.86
2019-05-12T17:00:39.715Z,53.02
2019-05-12T17:05:35.137Z,53.67
2019-05-12T17:10:34.119Z,53.67
2019-05-12T17:15:33.991Z,54.41
2019-05-12T17:20:34.014Z,53.72
2019-05-12T17:25:34.373Z,55.40
2019-05-12T17:30:34.398Z,56.65
2019-05-12T17:35:34.883Z,57.56
2019-05-12T17:40:34.801Z,57.79
2019-05-12T17:45:33.713Z,58.40
2019-05-12T17:50:34.619Z,58.40
2019-05-12T17:55:33.607Z,59.11
2019-05-12T18:00:33.717Z,59.03
2019-05-12T18:05:33.899Z,59.37
2019-05-12T18:10:38.015Z,59.47
2019-05-12T18:15:37.671Z,61.13
2019-05-12T18:20:39.923Z,61.87
2019-05-12T18:25:36.756Z,61.99
2019-05-12T18:30:33.525Z,64.06
2019-05-12T18:35:34.195Z,63.48
2019-05-12T18:40:34.213Z,64.32
2019-05-12T18:45:34.034Z,65.58
2019-05-12T18:50:34.333Z,66.19
2019-05-12T18:55:35.914Z,66.83
2019-05-12T19:00:34.021Z,67.14
2019-05-12T19:05:32.842Z,68.60
2019-05-12T19:10:33.418Z,70.14
2019-05-12T19:15:33.481Z,70.27
2019-05-12T19:20:36.165Z,71.63
2019-05-12T19:25:35.808Z,72.75
2019-05-12T19:30:36.877Z,71.56
2019-05-12T19:35:38.205Z,72.31
2019-05-12T19:40:35.260Z,73.06
2019-05-12T19:45:34.759Z,72.58
2019-05-12T19:50:32.352Z,73.13
2019-05-12T19:55:34.808Z,73.47
2019-05-12T20:00:33.544Z,73.91
2019-05-12T20:05:34.347Z,74.22
2019-05-12T20:10:36.195Z,73.33
2019-05-12T20:15:36.612Z,73.74
2019-05-12T20:20:36.500Z,72.96
2019-05-12T20:25:34.039Z,73.57
2019-05-12T20:30:31.979Z,74.80
2019-05-12T20:35:33.758Z,74.60
2019-05-12T20:40:32.173Z,74.80
2019-05-12T20:45:40.509Z,75.15
2019-05-12T20:50:38.671Z,75.76
